createdAt,value
2022-12-22T06:03:43.088Z,22.10
2022-12-22T06:06:11.557Z,22.30
2022-12-22T06:08:40.016Z,22.30
2022-12-22T06:11:08.681Z,22.20
2022-12-22T06:13:37.386Z,22.20
2022-12-22T06:16:06.888Z,22.40
2022-12-22T06:18:36.942Z,22.30
2022-12-22T06:21:05.899Z,22.20
2022-12-22T06:23:34.382Z,22.10
2022-12-22T06:26:03.765Z,21.70
2022-12-22T06:28:33.308Z,22.20
2022-12-22T06:31:01.794Z,22.20
2022-12-22T06:33:30.419Z,22.30
2022-12-22T06:36:04.919Z,22.30
2022-12-22T06:38:33.627Z,22.40
2022-12-22T06:41:02.429Z,22.50
2022-12-22T06:43:30.413Z,22.60
2022-12-22T06:45:59.443Z,22.60
2022-12-22T06:48:27.954Z,22.60
2022-12-22T06:51:01.532Z,22.40
2022-12-22T06:53:29.926Z,22.50
2022-12-22T06:55:58.503Z,22.40
2022-12-22T06:58:26.919Z,22.40
2022-12-22T07:00:57.690Z,22.50
2022-12-22T07:03:26.299Z,22.50
2022-12-22T07:11:00.915Z,22.30
2022-12-22T07:13:31.962Z,22.30
2022-12-22T07:16:02.103Z,22.40
2022-12-22T07:18:32.793Z,22.30
2022-12-22T07:21:02.704Z,22.30
2022-12-22T07:23:33.016Z,22.30
2022-12-22T07:26:02.188Z,22.30
2022-12-22T07:28:30.759Z,22.30
2022-12-22T07:30:59.235Z,22.30
2022-12-22T07:33:27.895Z,22.30
2022-12-22T07:36:05.273Z,22.20
2022-12-22T07:38:37.780Z,22.30
2022-12-22T07:41:29.082Z,22.30
2022-12-22T07:43:58.948Z,22.30
2022-12-22T07:51:49.730Z,22.10
2022-12-22T08:47:01.879Z,22.30
2022-12-22T08:49:30.896Z,22.20
2022-12-22T08:51:59.990Z,22.30
2022-12-22T08:54:28.992Z,22.30
2022-12-22T09:45:47.073Z,22.00
2022-12-22T09:48:16.373Z,22.10
2022-12-22T09:50:44.837Z,22.10
2022-12-22T09:53:21.362Z,22.10
2022-12-22T09:55:51.448Z,22.10
2022-12-22T09:58:27.053Z,22.10
2022-12-22T10:45:31.421Z,22.00
2022-12-22T10:48:00.112Z,22.00
2022-12-22T10:50:28.538Z,22.00
2022-12-22T10:53:00.143Z,22.10
2022-12-22T10:55:30.675Z,22.20
2022-12-22T10:58:17.596Z,22.10
2022-12-22T11:01:03.783Z,22.10
2022-12-22T11:03:33.396Z,22.10
2022-12-22T11:06:02.694Z,22.10
2022-12-22T11:08:33.210Z,22.10
2022-12-22T11:11:08.888Z,22.10
2022-12-22T11:13:54.212Z,22.10
2022-12-22T11:16:31.281Z,22.10
2022-12-22T11:21:56.030Z,21.90
2022-12-22T11:24:37.074Z,22.00
2022-12-22T11:27:21.962Z,22.00
2022-12-22T11:30:11.177Z,22.00
2022-12-22T11:33:08.391Z,22.00
2022-12-22T11:35:52.262Z,21.90
2022-12-22T11:38:32.717Z,22.00
2022-12-22T11:41:10.928Z,22.00
2022-12-22T11:43:55.233Z,22.00
2022-12-22T11:46:31.929Z,21.90
2022-12-22T11:49:18.817Z,21.90
2022-12-22T11:52:04.746Z,22.00
2022-12-22T11:55:11.866Z,22.00
2022-12-22T11:57:53.476Z,22.10
2022-12-22T12:00:28.419Z,22.10
2022-12-22T12:03:28.728Z,22.10
2022-12-22T12:06:49.635Z,22.10
2022-12-22T12:09:35.291Z,22.20
2022-12-22T12:12:12.710Z,22.10
2022-12-22T12:14:51.283Z,22.00
2022-12-22T12:17:36.373Z,22.00
2022-12-22T12:20:32.462Z,22.00
2022-12-22T12:23:20.912Z,22.00
2022-12-22T12:25:59.342Z,22.00
2022-12-22T12:28:41.624Z,22.00
2022-12-22T12:31:18.093Z,21.90
2022-12-22T12:33:52.371Z,21.90
2022-12-22T12:36:27.725Z,22.00
2022-12-22T12:41:48.536Z,21.90
2022-12-22T12:44:22.111Z,22.00
2022-12-22T12:47:09.593Z,21.90
2022-12-22T12:50:32.728Z,21.90
2022-12-22T12:53:10.912Z,21.90
2022-12-22T12:55:58.862Z,21.90
2022-12-22T12:58:57.856Z,22.00
2022-12-22T13:01:59.367Z,21.90
2022-12-22T13:05:14.377Z,21.90
2022-12-22T13:08:23.440Z,21.90
2022-12-22T13:12:10.683Z,21.90
2022-12-22T13:15:00.320Z,22.00
2022-12-22T13:17:41.791Z,21.90
2022-12-22T13:20:15.713Z,22.00
2022-12-22T13:22:45.371Z,22.00
2022-12-22T13:25:17.157Z,21.90
2022-12-22T13:27:46.892Z,21.90
2022-12-22T13:30:19.587Z,21.90
2022-12-22T13:32:50.213Z,22.00
2022-12-22T13:35:32.086Z,21.90
2022-12-22T13:38:02.289Z,21.90
2022-12-22T13:40:32.502Z,21.90
2022-12-22T13:43:06.752Z,21.90
2022-12-22T13:45:40.161Z,21.90
2022-12-22T13:50:48.332Z,21.80
2022-12-22T13:53:50.018Z,21.90
2022-12-22T13:56:17.042Z,21.90
2022-12-22T13:58:52.025Z,21.90
2022-12-22T14:01:21.212Z,21.80
2022-12-22T14:04:00.913Z,21.80
2022-12-22T14:06:32.751Z,21.80
2022-12-22T14:09:18.268Z,21.80
2022-12-22T14:11:52.562Z,21.80
2022-12-22T14:14:27.385Z,21.90
2022-12-22T14:16:59.040Z,22.00
2022-12-22T14:19:31.523Z,21.90
2022-12-22T14:22:07.026Z,21.90
2022-12-22T14:24:44.165Z,21.90
2022-12-22T14:27:25.011Z,21.80
2022-12-22T14:29:55.484Z,21.90
2022-12-22T14:32:38.632Z,21.90
2022-12-22T14:35:27.077Z,21.90
2022-12-22T14:38:09.013Z,21.90
2022-12-22T14:40:40.562Z,21.90
2022-12-22T14:43:30.341Z,21.90
2022-12-22T14:46:09.852Z,21.90
2022-12-22T14:48:41.765Z,22.10
2022-12-22T14:51:10.160Z,22.10
2022-12-22T14:53:46.472Z,22.20
2022-12-22T14:56:17.746Z,22.10
2022-12-22T14:58:48.293Z,22.20
2022-12-22T15:01:23.318Z,22.20
2022-12-22T15:04:07.156Z,22.20
2022-12-22T15:06:41.286Z,22.20
2022-12-22T15:12:18.358Z,22.30
2022-12-22T15:14:49.206Z,22.30
2022-12-22T15:17:25.454Z,22.20
2022-12-22T15:19:58.757Z,22.30
2022-12-22T15:22:27.190Z,22.30
2022-12-22T15:24:55.564Z,22.20
2022-12-22T15:27:24.241Z,22.30
2022-12-22T15:29:52.541Z,22.30
2022-12-22T15:32:22.352Z,22.30
2022-12-22T15:34:50.747Z,22.20
2022-12-22T15:37:19.212Z,22.30
2022-12-22T15:39:47.819Z,22.30
2022-12-22T15:42:16.103Z,22.20
2022-12-22T15:44:44.441Z,22.30
2022-12-22T15:47:13.940Z,22.30
2022-12-22T15:49:43.909Z,22.30
2022-12-22T15:52:14.714Z,22.30
2022-12-22T15:54:43.502Z,22.30
2022-12-22T15:57:14.439Z,22.20
2022-12-22T15:59:42.755Z,22.20
2022-12-22T16:02:13.217Z,22.20
2022-12-22T16:04:43.114Z,22.10
2022-12-22T16:07:13.125Z,22.10
2022-12-22T16:09:44.220Z,22.10
2022-12-22T16:12:15.808Z,22.10
2022-12-22T16:14:50.327Z,22.20
2022-12-22T16:17:21.367Z,22.10
2022-12-22T16:19:51.210Z,22.10
2022-12-22T16:22:27.550Z,22.10
2022-12-22T16:24:55.888Z,22.10
2022-12-22T16:27:24.542Z,22.00
2022-12-22T16:29:55.416Z,22.10
2022-12-22T16:32:27.737Z,22.10
2022-12-22T16:35:07.879Z,22.10
2022-12-22T16:37:36.287Z,22.00
2022-12-22T16:40:06.608Z,21.90
2022-12-22T16:45:26.934Z,22.00
2022-12-22T16:47:59.035Z,21.90
2022-12-22T16:50:33.262Z,21.90
2022-12-22T16:53:03.152Z,21.90
2022-12-22T16:55:33.445Z,21.90
2022-12-22T16:58:03.507Z,22.00
2022-12-22T17:00:38.222Z,21.90
2022-12-22T17:03:15.353Z,22.00
2022-12-22T17:05:49.753Z,21.90
2022-12-22T17:08:23.304Z,21.90
2022-12-22T17:10:53.058Z,22.00
2022-12-22T17:13:23.177Z,22.00
2022-12-22T17:15:51.663Z,21.90
2022-12-22T17:18:22.997Z,21.90
2022-12-22T21:45:29.667Z,21.50
2022-12-22T21:48:00.847Z,21.70
2022-12-22T21:50:32.166Z,21.60
2022-12-22T21:53:00.907Z,21.70
2022-12-22T21:55:33.309Z,21.70
2022-12-22T21:58:03.592Z,21.70
2022-12-22T22:00:33.378Z,21.70
2022-12-22T22:03:04.340Z,21.70
2022-12-22T22:05:36.043Z,21.70
2022-12-22T22:08:07.743Z,21.70
2022-12-22T22:10:38.255Z,21.70
2022-12-22T22:13:09.007Z,21.60
2022-12-22T22:15:37.873Z,21.70
2022-12-22T22:18:07.434Z,21.70
2022-12-22T22:20:36.522Z,21.70
2022-12-22T22:25:33.904Z,21.50
2022-12-22T22:28:02.549Z,21.60
2022-12-22T22:30:32.667Z,21.60
2022-12-22T22:33:01.206Z,21.60
2022-12-22T22:35:30.143Z,21.60
2022-12-22T22:37:58.448Z,21.60
2022-12-22T22:40:27.098Z,21.60
2022-12-22T22:42:56.824Z,21.70
2022-12-22T22:45:25.349Z,21.60
2022-12-22T22:47:55.394Z,21.70
2022-12-22T22:50:24.377Z,21.60
2022-12-22T22:52:52.783Z,21.50
2022-12-22T22:55:21.164Z,21.60
2022-12-22T22:57:49.592Z,21.60
2022-12-22T23:47:07.943Z,21.60
2022-12-22T23:49:36.440Z,21.60
2022-12-22T23:52:04.984Z,21.50
2022-12-22T23:54:33.504Z,21.60
2022-12-22T23:57:02.041Z,21.50
2022-12-22T23:59:30.437Z,21.60
